Time;durP1;ratioP1;P1;durP2;ratioP2;P2;SDS_P1;SDS_P2;PMS_P1;PMS_P2;Temp;Humidity;BMP_temperature;BMP_pressure;BME280_temperature;BME280_humidity;BME280_pressure;Samples;Min_cycle;Max_cycle;Signal;HPM_P1;HPM_P2
2021/12/19 00:09:22;;;;;;;18.43;13.53;;;3.20;99.90;;;;;;5113087;28;20250;-88
2021/12/19 00:11:48;;;;;;;17.23;13.33;;;3.20;99.90;;;;;;5112896;28;20199;-87
2021/12/19 00:14:14;;;;;;;17.73;13.13;;;3.30;99.90;;;;;;5094431;28;20215;-87
2021/12/19 00:16:40;;;;;;;16.77;12.70;;;3.30;99.90;;;;;;5112421;28;20596;-87
2021/12/19 00:19:09;;;;;;;16.00;12.80;;;3.20;99.90;;;;;;5111794;28;20171;-88
2021/12/19 00:21:35;;;;;;;15.20;12.07;;;3.20;99.90;;;;;;5112072;28;20280;-87
2021/12/19 00:24:01;;;;;;;14.77;12.93;;;3.20;99.90;;;;;;5077575;28;20220;-87
2021/12/19 00:26:27;;;;;;;15.77;12.87;;;3.20;99.90;;;;;;5094650;28;20302;-88
2021/12/19 00:28:54;;;;;;;15.03;11.63;;;3.20;99.90;;;;;;5112499;28;20226;-87
2021/12/19 00:31:20;;;;;;;14.80;12.00;;;3.10;99.90;;;;;;5093799;28;20207;-87
2021/12/19 00:33:46;;;;;;;17.17;13.17;;;3.00;99.90;;;;;;5112397;28;20206;-91
2021/12/19 00:36:12;;;;;;;15.63;12.50;;;3.10;99.90;;;;;;5094269;28;20659;-88
2021/12/19 00:38:38;;;;;;;20.43;13.23;;;2.90;99.90;;;;;;5094566;28;20205;-92
2021/12/19 00:41:05;;;;;;;15.67;12.63;;;2.90;99.90;;;;;;5110557;28;20229;-92
2021/12/19 00:43:45;;;;;;;16.83;13.03;;;3.00;99.90;;;;;;5093694;28;20297;-88
2021/12/19 00:46:14;;;;;;;15.00;12.63;;;2.90;99.90;;;;;;5073992;28;20518;-87
2021/12/19 00:48:41;;;;;;;14.80;12.33;;;2.90;99.90;;;;;;5079962;28;20182;-88
2021/12/19 00:51:10;;;;;;;15.90;12.73;;;2.80;99.90;;;;;;5107735;28;20223;-86
2021/12/19 00:53:37;;;;;;;17.43;12.87;;;2.80;99.90;;;;;;5114024;28;20216;-89
2021/12/19 00:56:03;;;;;;;16.03;12.03;;;2.90;99.90;;;;;;5098534;28;20195;-92
2021/12/19 00:58:29;;;;;;;17.37;12.27;;;2.80;99.90;;;;;;5080051;28;20178;-92
2021/12/19 01:00:55;;;;;;;16.00;12.73;;;2.70;99.90;;;;;;5094888;28;20172;-89
2021/12/19 01:03:21;;;;;;;16.27;11.70;;;2.80;99.90;;;;;;5080638;28;20182;-87
2021/12/19 01:05:48;;;;;;;17.63;12.17;;;2.80;99.90;;;;;;5077335;28;20170;-87
2021/12/19 01:08:14;;;;;;;14.63;11.37;;;2.80;99.90;;;;;;5086818;28;20637;-87
2021/12/19 01:10:46;;;;;;;16.17;11.60;;;2.70;99.90;;;;;;5094771;28;20645;-92
2021/12/19 01:13:13;;;;;;;15.63;12.80;;;2.70;99.90;;;;;;5084374;28;20306;-88
2021/12/19 01:15:39;;;;;;;17.07;12.43;;;2.70;99.90;;;;;;5095159;28;20176;-92
2021/12/19 01:18:05;;;;;;;14.53;11.53;;;2.70;99.90;;;;;;5075143;28;20178;-91
2021/12/19 01:20:36;;;;;;;16.23;11.93;;;2.70;99.90;;;;;;5074795;28;20178;-90
2021/12/19 01:23:03;;;;;;;14.80;12.20;;;2.70;99.90;;;;;;5092767;28;20170;-91
2021/12/19 01:25:29;;;;;;;15.20;12.07;;;2.80;99.90;;;;;;5093017;28;20177;-89
2021/12/19 01:27:55;;;;;;;15.43;12.30;;;2.80;99.90;;;;;;5092407;28;20167;-90
2021/12/19 01:30:21;;;;;;;15.63;12.10;;;2.80;99.90;;;;;;5095439;28;20188;-90
2021/12/19 01:32:47;;;;;;;19.53;12.60;;;2.70;99.90;;;;;;5095749;28;20212;-92
2021/12/19 01:35:16;;;;;;;17.77;11.87;;;2.60;99.90;;;;;;5095890;28;20202;-89
2021/12/19 01:37:42;;;;;;;15.23;12.00;;;2.50;99.90;;;;;;5077255;28;20205;-91
2021/12/19 01:40:12;;;;;;;15.13;11.37;;;2.60;99.90;;;;;;5078781;28;20224;-89
2021/12/19 01:42:40;;;;;;;16.00;12.83;;;2.70;99.90;;;;;;5106510;28;20224;-88
2021/12/19 01:45:11;;;;;;;16.00;12.10;;;2.60;99.90;;;;;;5097274;28;20176;-88
2021/12/19 01:47:37;;;;;;;16.43;12.73;;;2.50;99.90;;;;;;5115775;28;20157;-89
2021/12/19 01:50:04;;;;;;;15.43;12.70;;;2.50;99.90;;;;;;5115820;28;20177;-86
2021/12/19 01:52:33;;;;;;;16.13;12.40;;;2.50;99.90;;;;;;5097932;28;20206;-86
2021/12/19 01:54:59;;;;;;;14.57;11.80;;;2.50;99.90;;;;;;5116387;28;20199;-86
2021/12/19 01:57:26;;;;;;;18.03;12.10;;;2.30;99.90;;;;;;5116022;28;20173;-87
2021/12/19 01:59:53;;;;;;;14.93;12.00;;;2.30;99.90;;;;;;5097306;28;20189;-87
2021/12/19 02:02:20;;;;;;;18.10;12.47;;;2.30;99.90;;;;;;5097547;28;20226;-86
2021/12/19 02:04:46;;;;;;;14.50;12.03;;;2.30;99.90;;;;;;5098728;28;20185;-87
2021/12/19 02:07:13;;;;;;;16.13;11.70;;;2.50;99.90;;;;;;5117238;28;20176;-89
2021/12/19 02:09:42;;;;;;;16.53;12.33;;;2.40;99.90;;;;;;5116095;28;20186;-87
2021/12/19 02:12:09;;;;;;;18.20;12.60;;;2.40;99.90;;;;;;5117194;28;20172;-91
2021/12/19 02:14:35;;;;;;;14.17;11.33;;;2.40;99.90;;;;;;5099184;28;20215;-92
2021/12/19 02:17:01;;;;;;;17.00;12.13;;;2.40;99.90;;;;;;5097364;28;20178;-91
2021/12/19 02:19:29;;;;;;;16.37;12.43;;;2.30;99.90;;;;;;5097694;28;20177;-93
2021/12/19 02:21:55;;;;;;;15.60;12.17;;;2.20;99.90;;;;;;5115365;28;20177;-91
2021/12/19 02:24:21;;;;;;;16.97;12.03;;;2.30;99.90;;;;;;5119765;28;20176;-92
2021/12/19 02:26:47;;;;;;;14.37;11.30;;;2.30;99.90;;;;;;5116758;28;20518;-92
2021/12/19 02:29:13;;;;;;;16.00;12.57;;;2.30;99.90;;;;;;5116215;28;20172;-92
2021/12/19 02:31:40;;;;;;;15.63;11.37;;;2.40;99.90;;;;;;5097678;28;20189;-90
2021/12/19 02:34:15;;;;;;;17.40;12.00;;;2.40;99.90;;;;;;5097969;28;20220;-92
2021/12/19 02:50:18;;;;;;;14.80;10.87;;;2.00;99.90;;;;;;5101218;28;20663;-88
2021/12/19 02:52:45;;;;;;;15.73;11.30;;;2.20;99.90;;;;;;5075555;28;20298;-87
2021/12/19 02:55:13;;;;;;;13.30;10.57;;;2.20;99.90;;;;;;5074755;28;20184;-86
2021/12/19 02:57:40;;;;;;;12.43;10.10;;;2.10;99.90;;;;;;5074624;28;20207;-87
2021/12/19 03:00:12;;;;;;;15.13;11.53;;;2.10;99.90;;;;;;5093000;28;20174;-87
2021/12/19 03:02:38;;;;;;;13.70;10.83;;;2.20;99.90;;;;;;5093029;28;20169;-87
2021/12/19 03:05:05;;;;;;;15.43;10.93;;;2.20;99.90;;;;;;5074488;28;20210;-88
2021/12/19 03:07:31;;;;;;;13.03;10.60;;;2.10;99.90;;;;;;5093021;28;20754;-90
2021/12/19 03:20:23;;;;;;;12.13;10.57;;;2.10;99.90;;;;;;5106651;28;20163;-92
2021/12/19 03:22:49;;;;;;;10.57;9.20;;;1.90;99.90;;;;;;5106675;28;20172;-90
2021/12/19 03:25:16;;;;;;;10.50;9.40;;;1.90;99.90;;;;;;5111585;28;20180;-91
2021/12/19 03:27:42;;;;;;;13.90;9.80;;;1.90;99.90;;;;;;5094652;28;20173;-92
2021/12/19 03:30:09;;;;;;;11.93;9.17;;;1.90;99.90;;;;;;5094201;28;20191;-91
2021/12/19 03:32:35;;;;;;;13.13;10.30;;;2.00;99.90;;;;;;5075745;28;20208;-91
2021/12/19 03:35:01;;;;;;;11.47;9.30;;;2.10;99.90;;;;;;5094020;28;20173;-92
2021/12/19 03:37:26;;;;;;;11.90;10.07;;;2.00;99.90;;;;;;5093969;28;20231;-92
2021/12/19 03:39:57;;;;;;;11.77;9.83;;;2.00;99.90;;;;;;5074408;28;20193;-87
2021/12/19 03:42:25;;;;;;;12.37;8.60;;;2.00;99.90;;;;;;5101742;28;20751;-87
2021/12/19 03:44:51;;;;;;;9.43;8.40;;;1.90;99.90;;;;;;5124414;28;20186;-87
2021/12/19 03:47:17;;;;;;;10.43;9.03;;;1.90;99.90;;;;;;5110567;28;20184;-90
2021/12/19 03:49:42;;;;;;;11.03;8.90;;;1.90;99.90;;;;;;5124724;28;20175;-88
2021/12/19 03:52:08;;;;;;;14.20;9.23;;;1.90;99.90;;;;;;5116044;28;20173;-87
2021/12/19 03:54:34;;;;;;;10.67;8.73;;;1.90;99.90;;;;;;5113133;28;20170;-87
2021/12/19 03:56:59;;;;;;;12.97;9.23;;;1.90;99.90;;;;;;5095543;28;20184;-92
2021/12/19 03:59:27;;;;;;;10.43;8.93;;;2.00;99.90;;;;;;5115071;28;20178;-91
2021/12/19 04:01:53;;;;;;;10.27;9.10;;;1.90;99.90;;;;;;5117334;28;20173;-92
2021/12/19 04:04:19;;;;;;;10.60;8.80;;;1.90;99.90;;;;;;5116070;28;20175;-90
2021/12/19 04:06:45;;;;;;;11.57;8.83;;;1.90;99.90;;;;;;5124350;28;20170;-89
2021/12/19 04:09:11;;;;;;;12.10;8.80;;;1.90;99.90;;;;;;5136019;28;20174;-91
2021/12/19 04:11:37;;;;;;;9.43;8.30;;;1.90;99.90;;;;;;5134206;28;20198;-91
2021/12/19 04:14:02;;;;;;;10.47;8.90;;;1.80;99.90;;;;;;5112525;28;20224;-92
2021/12/19 04:16:28;;;;;;;10.53;8.90;;;1.80;99.90;;;;;;5119118;28;20172;-91
2021/12/19 04:18:58;;;;;;;11.17;9.57;;;1.80;99.90;;;;;;5136200;28;20172;-89
2021/12/19 04:21:24;;;;;;;14.23;9.77;;;1.70;99.90;;;;;;5136557;28;20203;-91
2021/12/19 04:23:50;;;;;;;10.50;9.40;;;1.70;99.90;;;;;;5139389;28;20164;-90
2021/12/19 04:26:16;;;;;;;12.50;9.80;;;1.70;99.90;;;;;;5135939;28;20186;-89
2021/12/19 04:28:42;;;;;;;13.40;9.97;;;1.60;99.90;;;;;;5135353;28;20192;-90
2021/12/19 04:31:08;;;;;;;15.37;11.23;;;1.60;99.90;;;;;;5111243;28;20263;-88
2021/12/19 04:33:36;;;;;;;14.40;11.17;;;1.50;99.90;;;;;;5126597;28;20203;-90
2021/12/19 04:36:05;;;;;;;15.60;11.13;;;1.60;99.90;;;;;;5124077;28;20650;-90
2021/12/19 04:55:25;;;;;;;11.20;9.70;;;1.50;99.90;;;;;;5091439;28;20211;-87
2021/12/19 04:57:40;;;;;;;14.87;10.77;;;1.40;99.90;;;;;;5079785;28;20186;-87
2021/12/19 05:00:14;;;;;;;14.37;10.33;;;1.40;99.90;;;;;;5072864;28;20184;-87
2021/12/19 05:16:06;;;;;;;16.73;11.57;;;1.50;99.90;;;;;;5053377;28;20184;-87
2021/12/19 05:18:38;;;;;;;15.00;11.30;;;1.50;99.90;;;;;;5094922;28;20181;-87
2021/12/19 05:21:10;;;;;;;10.17;9.00;;;1.50;99.90;;;;;;5095005;28;20257;-88
2021/12/19 05:26:02;;;;;;;9.17;7.43;;;1.40;99.90;;;;;;5094873;28;20253;-87
2021/12/19 05:28:28;;;;;;;10.50;9.10;;;1.30;99.90;;;;;;5097271;28;20176;-87
2021/12/19 05:30:54;;;;;;;7.83;6.67;;;1.30;99.90;;;;;;5100207;28;20167;-87
2021/12/19 05:33:20;;;;;;;8.90;7.20;;;1.30;99.90;;;;;;5103096;28;20201;-87
2021/12/19 05:36:06;;;;;;;7.67;6.90;;;1.30;99.90;;;;;;5112662;28;20169;-88
2021/12/19 05:46:59;;;;;;;10.73;9.17;;;1.30;99.90;;;;;;5116145;28;20224;-91
2021/12/19 05:49:25;;;;;;;12.10;10.07;;;1.20;99.90;;;;;;5116925;28;20173;-93
2021/12/19 05:51:51;;;;;;;11.57;9.77;;;1.30;99.90;;;;;;5098736;28;20761;-92
2021/12/19 05:54:17;;;;;;;10.60;9.50;;;1.30;99.90;;;;;;5116983;28;20207;-92
2021/12/19 05:56:45;;;;;;;14.97;10.80;;;1.40;99.90;;;;;;5098544;28;20271;-91
2021/12/19 05:59:11;;;;;;;14.50;10.90;;;1.50;99.90;;;;;;5116777;28;20175;-92
2021/12/19 06:01:38;;;;;;;13.57;10.67;;;1.60;99.90;;;;;;5118113;28;20172;-93
2021/12/19 06:04:05;;;;;;;14.90;11.10;;;1.60;99.90;;;;;;5100033;28;20183;-93
2021/12/19 06:06:31;;;;;;;13.23;10.73;;;1.50;99.90;;;;;;5123744;28;20172;-92
2021/12/19 06:08:57;;;;;;;15.73;11.50;;;1.50;99.90;;;;;;5133427;28;20179;-91
2021/12/19 06:11:23;;;;;;;14.87;10.83;;;1.50;99.90;;;;;;5136332;28;20172;-92
2021/12/19 06:13:49;;;;;;;12.27;9.70;;;1.40;99.90;;;;;;5136097;28;20261;-91
2021/12/19 06:16:14;;;;;;;9.17;7.87;;;1.40;99.90;;;;;;5113421;28;20239;-93
2021/12/19 06:18:40;;;;;;;12.43;8.63;;;1.30;99.90;;;;;;5103126;28;20199;-92
2021/12/19 06:21:07;;;;;;;8.93;7.83;;;1.40;99.90;;;;;;5117733;28;20172;-92
2021/12/19 06:23:33;;;;;;;10.13;8.37;;;1.30;99.90;;;;;;5100549;28;20184;-89
2021/12/19 06:25:59;;;;;;;9.30;8.40;;;1.30;99.90;;;;;;5104100;28;20179;-91
2021/12/19 06:28:26;;;;;;;11.17;9.43;;;1.40;99.90;;;;;;5130810;28;20175;-91
2021/12/19 06:30:52;;;;;;;12.43;10.67;;;1.40;99.90;;;;;;5138068;28;20234;-92
2021/12/19 06:33:19;;;;;;;14.33;11.07;;;1.40;99.90;;;;;;5107121;28;20254;-90
2021/12/19 06:35:44;;;;;;;13.07;10.83;;;1.40;99.90;;;;;;5097807;28;20188;-88
2021/12/19 06:38:12;;;;;;;15.00;11.33;;;1.50;99.90;;;;;;5116472;28;20172;-89
2021/12/19 06:40:38;;;;;;;15.70;11.20;;;1.40;99.90;;;;;;5114573;28;20211;-88
2021/12/19 06:43:04;;;;;;;14.37;11.80;;;1.30;99.90;;;;;;5094316;28;20269;-86
2021/12/19 06:45:30;;;;;;;19.87;12.63;;;1.30;99.90;;;;;;5096009;28;20168;-88
2021/12/19 06:47:56;;;;;;;17.60;12.50;;;1.30;99.90;;;;;;5095894;28;20187;-89
2021/12/19 06:50:22;;;;;;;17.30;11.70;;;1.30;99.90;;;;;;5096038;28;20182;-89
2021/12/19 06:52:48;;;;;;;16.63;12.30;;;1.30;99.90;;;;;;5095660;28;20945;-89
2021/12/19 06:55:15;;;;;;;15.37;12.20;;;1.30;99.90;;;;;;5077362;28;20185;-91
2021/12/19 06:57:42;;;;;;;14.73;11.70;;;1.30;99.90;;;;;;5095566;28;20228;-91
2021/12/19 07:00:12;;;;;;;15.07;11.57;;;1.20;99.90;;;;;;5095087;28;20213;-89
2021/12/19 07:02:38;;;;;;;14.87;12.27;;;1.20;99.90;;;;;;5060234;28;20184;-90
2021/12/19 07:05:04;;;;;;;11.90;10.27;;;1.20;99.90;;;;;;5094397;28;20688;-90
2021/12/19 07:07:31;;;;;;;14.27;11.33;;;1.20;99.90;;;;;;5076993;28;20271;-88
2021/12/19 07:09:58;;;;;;;15.00;11.57;;;1.20;99.90;;;;;;5076989;28;20180;-90
2021/12/19 07:12:26;;;;;;;17.80;11.37;;;1.30;99.90;;;;;;5076252;28;20204;-88
2021/12/19 07:14:53;;;;;;;14.30;11.07;;;1.30;99.90;;;;;;5075713;28;20242;-85
2021/12/19 07:17:19;;;;;;;8.40;7.50;;;1.30;99.90;;;;;;5094083;28;20193;-86
2021/12/19 07:19:45;;;;;;;16.27;8.10;;;1.40;99.90;;;;;;5094238;28;20328;-91
2021/12/19 07:22:11;;;;;;;12.37;7.87;;;1.30;99.90;;;;;;5076328;28;20692;-88
2021/12/19 07:24:37;;;;;;;8.70;7.80;;;1.30;99.90;;;;;;5074598;28;20183;-87
2021/12/19 07:27:05;;;;;;;9.17;7.50;;;1.30;99.90;;;;;;5092244;28;20180;-87
2021/12/19 07:29:31;;;;;;;8.37;7.53;;;1.10;99.90;;;;;;5074402;28;20521;-87
2021/12/19 07:31:58;;;;;;;13.00;8.57;;;1.20;99.90;;;;;;5092565;28;20623;-87
2021/12/19 07:34:30;;;;;;;9.63;7.60;;;1.30;99.90;;;;;;5074567;28;20223;-88
2021/12/19 07:36:57;;;;;;;10.00;7.83;;;1.40;99.90;;;;;;5096993;28;20155;-88
2021/12/19 07:40:13;;;;;;;11.03;8.13;;;1.40;99.90;;;;;;5083120;28;20175;-91
2021/12/19 07:42:12;;;;;;;9.83;7.67;;;1.40;99.90;;;;;;5093391;28;20227;-88
2021/12/19 07:44:39;;;;;;;12.10;8.17;;;1.50;99.90;;;;;;5104137;28;20174;-89
2021/12/19 07:47:08;;;;;;;8.20;7.40;;;1.50;99.90;;;;;;5078067;28;20548;-87
2021/12/19 07:49:34;;;;;;;8.77;7.70;;;1.60;99.90;;;;;;5102072;28;20576;-88
2021/12/19 07:52:00;;;;;;;8.33;7.23;;;1.60;99.90;;;;;;5075841;28;20181;-89
2021/12/19 07:54:26;;;;;;;8.63;7.67;;;1.70;99.90;;;;;;5076548;28;20225;-89
2021/12/19 07:56:52;;;;;;;9.33;8.00;;;1.70;99.90;;;;;;5079859;28;20234;-88
2021/12/19 07:59:18;;;;;;;9.00;7.20;;;1.60;99.90;;;;;;5086807;28;20206;-90
2021/12/19 08:01:44;;;;;;;11.60;8.07;;;1.70;99.90;;;;;;5090420;28;20184;-86
2021/12/19 08:04:10;;;;;;;11.80;8.00;;;1.70;99.90;;;;;;5108647;28;20192;-90
2021/12/19 08:06:36;;;;;;;9.60;7.47;;;1.80;99.90;;;;;;5099548;28;20522;-88
2021/12/19 08:09:11;;;;;;;10.13;8.27;;;1.90;99.90;;;;;;5076519;28;20581;-87
2021/12/19 08:11:42;;;;;;;10.03;7.43;;;2.00;99.90;;;;;;5102930;28;20193;-86
2021/12/19 08:14:13;;;;;;;12.67;8.63;;;2.00;99.90;;;;;;5082372;28;20337;-89
2021/12/19 08:16:42;;;;;;;9.33;8.20;;;2.00;99.90;;;;;;5082134;28;20168;-92
2021/12/19 08:19:08;;;;;;;11.77;8.77;;;2.20;99.90;;;;;;5096246;28;20266;-88
2021/12/19 08:21:34;;;;;;;12.73;9.50;;;2.30;99.90;;;;;;5088688;28;20633;-92
2021/12/19 08:24:02;;;;;;;11.07;8.70;;;2.20;99.90;;;;;;5113391;28;20183;-86
2021/12/19 08:26:30;;;;;;;11.70;8.47;;;2.30;99.90;;;;;;5106444;28;20169;-95
2021/12/19 08:28:57;;;;;;;11.77;8.00;;;2.40;99.90;;;;;;5095098;28;20197;-92
2021/12/19 08:31:23;;;;;;;11.57;8.10;;;2.40;99.90;;;;;;5095320;28;20173;-87
2021/12/19 08:33:49;;;;;;;8.90;8.00;;;2.50;99.90;;;;;;5095235;28;20212;-91
2021/12/19 08:36:16;;;;;;;8.40;7.60;;;2.50;99.90;;;;;;5094282;28;20223;-86
2021/12/19 08:38:42;;;;;;;10.90;7.97;;;2.60;99.90;;;;;;5094608;28;20191;-90
2021/12/19 08:41:08;;;;;;;8.43;7.23;;;2.70;99.90;;;;;;5094436;28;20229;-92
2021/12/19 08:43:34;;;;;;;9.60;7.17;;;2.70;99.90;;;;;;5116986;28;20570;-88
2021/12/19 08:46:00;;;;;;;9.27;7.47;;;2.70;99.90;;;;;;5132278;28;20172;-88
2021/12/19 08:48:29;;;;;;;6.90;6.20;;;2.70;99.90;;;;;;5109292;28;20214;-86
2021/12/19 08:50:57;;;;;;;12.63;7.30;;;2.70;99.90;;;;;;5110620;28;20161;-87
2021/12/19 08:53:22;;;;;;;7.30;6.60;;;2.90;99.90;;;;;;5119498;28;20217;-88
2021/12/19 08:55:48;;;;;;;8.20;6.17;;;3.00;99.90;;;;;;5119834;28;20164;-89
2021/12/19 08:58:14;;;;;;;7.30;6.60;;;3.00;99.90;;;;;;5113370;28;20245;-86
2021/12/19 09:00:39;;;;;;;6.50;5.90;;;3.00;99.90;;;;;;5119856;28;20258;-89
2021/12/19 09:03:05;;;;;;;7.63;6.40;;;3.00;99.90;;;;;;5099484;28;20701;-88
2021/12/19 09:05:32;;;;;;;8.97;7.33;;;3.00;99.90;;;;;;5122610;28;20169;-89
2021/12/19 09:07:58;;;;;;;11.10;6.80;;;3.10;99.90;;;;;;5098578;28;20174;-87
2021/12/19 09:10:25;;;;;;;10.23;7.83;;;3.20;99.90;;;;;;5095151;28;20586;-87
2021/12/19 09:12:52;;;;;;;9.77;8.27;;;3.30;99.90;;;;;;5113297;28;20207;-89
2021/12/19 09:15:20;;;;;;;15.03;9.23;;;3.30;99.90;;;;;;5094950;28;20184;-89
2021/12/19 09:17:46;;;;;;;14.37;11.00;;;3.30;99.90;;;;;;5112462;28;20164;-88
2021/12/19 09:20:12;;;;;;;18.57;11.80;;;3.40;99.90;;;;;;5113760;28;20185;-88
2021/12/19 09:22:38;;;;;;;17.47;11.73;;;3.40;99.90;;;;;;5096171;28;20174;-87
2021/12/19 09:25:05;;;;;;;14.50;11.47;;;3.50;99.90;;;;;;5112106;28;20203;-89
2021/12/19 09:27:32;;;;;;;13.77;9.70;;;3.50;99.90;;;;;;5116671;28;20193;-88
2021/12/19 09:29:58;;;;;;;11.17;8.87;;;3.50;99.90;;;;;;5133463;28;20516;-88
2021/12/19 09:32:25;;;;;;;12.70;9.73;;;3.60;99.90;;;;;;5132719;28;20280;-88
2021/12/19 09:34:57;;;;;;;13.60;8.80;;;3.60;99.90;;;;;;5101359;28;20654;-88
2021/12/19 09:37:22;;;;;;;12.80;9.80;;;3.70;99.90;;;;;;5115770;28;20187;-90
2021/12/19 09:39:50;;;;;;;11.70;9.40;;;3.70;99.90;;;;;;5114250;28;20162;-88
2021/12/19 09:42:20;;;;;;;13.73;10.37;;;3.70;99.90;;;;;;5092036;28;20231;-89
2021/12/19 09:44:46;;;;;;;12.87;11.37;;;3.80;99.90;;;;;;5101019;28;20653;-89
2021/12/19 09:47:12;;;;;;;14.60;9.67;;;3.80;99.90;;;;;;5105141;28;20173;-88
2021/12/19 09:49:39;;;;;;;12.87;10.00;;;4.00;99.90;;;;;;5112579;28;20172;-88
2021/12/19 09:52:09;;;;;;;12.33;9.93;;;3.90;99.90;;;;;;5126689;28;20192;-90
2021/12/19 09:54:39;;;;;;;15.47;10.77;;;3.90;99.90;;;;;;5100680;28;20657;-87
2021/12/19 09:57:05;;;;;;;13.37;10.37;;;3.90;99.90;;;;;;5100412;28;20178;-88
2021/12/19 09:59:31;;;;;;;14.33;11.17;;;4.00;99.90;;;;;;5105344;28;20242;-88
2021/12/19 10:01:57;;;;;;;13.47;11.00;;;4.00;99.90;;;;;;5127492;28;20894;-88
2021/12/19 10:04:44;;;;;;;15.57;12.20;;;4.00;99.90;;;;;;5117982;28;20518;-91
2021/12/19 10:07:19;;;;;;;16.10;11.93;;;4.10;99.90;;;;;;5117106;28;20248;-90
2021/12/19 10:10:01;;;;;;;13.17;11.13;;;4.10;99.90;;;;;;5096875;28;20910;-88
2021/12/19 10:15:01;;;;;;;14.10;12.10;;;4.10;99.90;;;;;;5133654;28;20168;-87
2021/12/19 10:17:27;;;;;;;16.60;11.40;;;4.10;99.90;;;;;;5129132;28;20177;-88
2021/12/19 10:19:55;;;;;;;19.97;10.70;;;4.20;99.90;;;;;;5104814;28;20229;-86
2021/12/19 10:22:32;;;;;;;12.70;10.83;;;4.20;99.90;;;;;;5113669;28;20197;-86
2021/12/19 10:25:18;;;;;;;13.57;11.17;;;4.30;99.90;;;;;;5114203;28;20170;-88
2021/12/19 10:27:48;;;;;;;15.53;11.80;;;4.30;99.90;;;;;;5113609;28;20191;-91
2021/12/19 10:30:19;;;;;;;14.87;12.03;;;4.40;99.90;;;;;;5101908;28;20170;-87
2021/12/19 10:32:57;;;;;;;17.23;12.77;;;4.50;99.90;;;;;;5117709;28;20233;-87
2021/12/19 10:35:47;;;;;;;17.17;12.43;;;4.50;99.90;;;;;;5096235;28;20170;-86
2021/12/19 10:38:20;;;;;;;17.43;12.13;;;4.60;99.90;;;;;;5114813;28;20153;-95
2021/12/19 10:40:52;;;;;;;15.13;12.90;;;4.60;99.90;;;;;;5099563;28;20180;-91
2021/12/19 10:43:20;;;;;;;15.90;12.97;;;4.70;99.90;;;;;;5080551;28;20198;-89
2021/12/19 10:45:52;;;;;;;18.40;13.77;;;4.70;99.90;;;;;;5095536;28;20575;-87
2021/12/19 10:48:28;;;;;;;15.03;12.57;;;4.80;99.90;;;;;;5075817;28;20181;-86
2021/12/19 10:50:55;;;;;;;18.27;11.93;;;4.80;99.90;;;;;;5094299;28;20159;-89
2021/12/19 10:53:37;;;;;;;19.37;12.60;;;4.90;99.90;;;;;;5076234;28;20439;-89
2021/12/19 10:56:19;;;;;;;14.67;11.40;;;4.90;99.90;;;;;;5076174;28;20183;-91
2021/12/19 10:58:56;;;;;;;14.13;11.43;;;4.90;99.90;;;;;;5094848;28;20174;-89
2021/12/19 11:01:30;;;;;;;13.80;11.20;;;5.00;99.90;;;;;;5077274;28;20173;-89
2021/12/19 11:04:03;;;;;;;13.57;11.07;;;5.00;99.90;;;;;;5077775;28;20259;-95
2021/12/19 11:06:38;;;;;;;16.87;11.57;;;5.00;99.90;;;;;;5095523;28;20175;-95
2021/12/19 11:09:08;;;;;;;15.67;11.83;;;5.10;99.90;;;;;;5061984;28;20175;-93
2021/12/19 11:11:42;;;;;;;13.13;11.40;;;5.10;99.90;;;;;;5077086;28;20176;-96
2021/12/19 11:14:14;;;;;;;13.70;11.17;;;5.20;99.90;;;;;;5095283;28;20202;-91
2021/12/19 11:16:41;;;;;;;13.07;11.27;;;5.20;99.90;;;;;;5088695;28;20709;-94
2021/12/19 11:19:08;;;;;;;19.07;11.80;;;5.20;99.90;;;;;;5096029;28;20178;-93
2021/12/19 11:21:36;;;;;;;15.60;12.00;;;5.30;99.90;;;;;;5078180;28;20675;-91
2021/12/19 11:24:11;;;;;;;13.73;11.20;;;5.20;99.90;;;;;;5096840;28;20176;-93
2021/12/19 11:26:39;;;;;;;13.80;11.30;;;5.30;99.90;;;;;;5077403;28;20179;-87
2021/12/19 11:29:06;;;;;;;13.90;10.93;;;5.30;99.90;;;;;;5077897;28;20955;-87
2021/12/19 11:31:39;;;;;;;13.77;10.70;;;5.30;99.90;;;;;;5105130;28;20187;-89
2021/12/19 11:34:23;;;;;;;15.70;11.20;;;5.30;99.90;;;;;;5102283;28;20205;-87
2021/12/19 11:36:55;;;;;;;13.27;10.30;;;5.40;99.90;;;;;;5107724;28;20192;-87
2021/12/19 11:39:29;;;;;;;12.47;10.40;;;5.50;99.90;;;;;;5075391;28;20175;-85
2021/12/19 11:42:26;;;;;;;11.27;9.87;;;5.50;99.90;;;;;;5081824;28;20337;-87
2021/12/19 11:47:50;;;;;;;11.77;9.40;;;5.60;99.90;;;;;;5110362;28;20185;-87
2021/12/19 11:50:26;;;;;;;10.43;9.37;;;5.70;99.90;;;;;;5093976;28;20208;-86
2021/12/19 11:52:54;;;;;;;11.90;10.00;;;5.70;99.90;;;;;;5095240;28;20205;-88
2021/12/19 11:55:28;;;;;;;16.83;9.90;;;5.80;99.90;;;;;;5112546;28;20597;-89
2021/12/19 11:58:24;;;;;;;14.03;9.80;;;5.90;99.90;;;;;;5095383;28;20521;-89
2021/12/19 12:01:03;;;;;;;13.10;10.40;;;6.00;99.90;;;;;;5075765;28;20180;-87
2021/12/19 12:03:51;;;;;;;11.87;10.37;;;6.10;99.80;;;;;;5123245;28;20247;-88
2021/12/19 12:06:20;;;;;;;15.60;10.37;;;6.20;99.80;;;;;;5117032;28;20195;-89
2021/12/19 12:09:06;;;;;;;18.70;10.50;;;6.20;99.70;;;;;;5128966;28;20173;-86
2021/12/19 12:11:34;;;;;;;12.63;9.63;;;6.30;99.50;;;;;;5115589;28;20188;-87
2021/12/19 12:14:23;;;;;;;13.33;10.17;;;6.50;99.10;;;;;;5093375;28;20211;-86
2021/12/19 12:17:04;;;;;;;14.13;10.73;;;6.60;99.40;;;;;;5112501;28;20199;-87
2021/12/19 12:19:56;;;;;;;15.77;10.63;;;6.70;99.00;;;;;;5094171;28;20265;-86
2021/12/19 12:22:40;;;;;;;18.97;11.63;;;6.80;99.00;;;;;;5112472;28;20664;-89
2021/12/19 12:25:08;;;;;;;16.03;10.60;;;6.80;99.20;;;;;;5113094;28;20159;-92
2021/12/19 12:27:40;;;;;;;14.87;10.27;;;6.80;99.00;;;;;;5112412;28;20173;-86
2021/12/19 12:30:10;;;;;;;22.50;9.73;;;6.90;99.10;;;;;;5112575;28;20260;-86
2021/12/19 12:32:36;;;;;;;14.73;9.87;;;6.90;99.20;;;;;;5112724;28;20194;-86
2021/12/19 12:35:03;;;;;;;14.33;10.10;;;7.00;99.10;;;;;;5093937;28;20183;-87
2021/12/19 12:37:29;;;;;;;13.93;9.73;;;7.00;99.20;;;;;;5111861;28;20662;-85
2021/12/19 12:40:18;;;;;;;11.13;9.03;;;7.00;99.20;;;;;;5111981;28;20181;-89
2021/12/19 12:42:57;;;;;;;12.43;9.07;;;7.00;99.20;;;;;;5095123;28;20717;-87
2021/12/19 12:45:27;;;;;;;14.67;9.27;;;7.00;99.20;;;;;;5097519;28;20208;-87
2021/12/19 12:47:53;;;;;;;12.97;9.07;;;7.10;99.00;;;;;;5094031;28;20170;-90
